Time;durP1;ratioP1;P1;durP2;ratioP2;P2;SDS_P1;SDS_P2;PMS_P1;PMS_P2;Temp;Humidity;BMP_temperature;BMP_pressure;BME280_temperature;BME280_humidity;BME280_pressure;Samples;Min_cycle;Max_cycle;Signal;HPM_P1;HPM_P2
2023/05/31 00:01:08;;;;;;;0.10;0.10;;;16.70;99.90;;;;;;5041621;28;20568;-80
2023/05/31 00:03:35;;;;;;;0.10;0.10;;;16.70;99.90;;;;;;5041857;28;20225;-80
2023/05/31 00:06:00;;;;;;;0.10;0.10;;;16.70;99.90;;;;;;5041998;28;20198;-80
2023/05/31 00:08:27;;;;;;;0.10;0.10;;;16.70;99.90;;;;;;5043355;28;20225;-80
2023/05/31 00:10:53;;;;;;;0.10;0.10;;;16.60;99.90;;;;;;5043653;28;20180;-80
2023/05/31 00:13:18;;;;;;;0.10;0.10;;;16.60;99.90;;;;;;5043059;28;20201;-80
2023/05/31 00:15:43;;;;;;;0.10;0.10;;;16.60;99.90;;;;;;5043836;28;20282;-80
2023/05/31 00:18:09;;;;;;;0.33;0.33;;;16.60;99.90;;;;;;5043955;28;20212;-80
2023/05/31 00:20:34;;;;;;;0.10;0.10;;;16.60;99.90;;;;;;5044723;28;20193;-80
2023/05/31 00:23:00;;;;;;;0.10;0.10;;;16.60;99.90;;;;;;5044828;28;20272;-80
2023/05/31 00:25:25;;;;;;;0.10;0.10;;;16.60;99.90;;;;;;5045239;28;20189;-80
2023/05/31 00:27:51;;;;;;;0.10;0.10;;;16.50;99.90;;;;;;5043898;28;20202;-80
2023/05/31 00:30:17;;;;;;;0.10;0.10;;;16.60;99.90;;;;;;5043150;28;20225;-80
2023/05/31 00:32:42;;;;;;;0.10;0.10;;;16.50;99.90;;;;;;5043231;28;20185;-80
2023/05/31 00:35:08;;;;;;;0.10;0.10;;;16.50;99.90;;;;;;5040348;28;20244;-80
2023/05/31 00:37:37;;;;;;;0.10;0.10;;;16.50;99.90;;;;;;5040188;28;20204;-80
2023/05/31 00:40:05;;;;;;;0.10;0.10;;;16.40;99.90;;;;;;5040140;28;20208;-80
2023/05/31 00:42:31;;;;;;;0.10;0.10;;;16.40;99.90;;;;;;5039490;28;20854;-80
2023/05/31 00:44:57;;;;;;;0.10;0.10;;;16.40;99.90;;;;;;5039883;28;20206;-81
2023/05/31 00:47:23;;;;;;;0.10;0.10;;;16.40;99.90;;;;;;5041541;28;20214;-80
2023/05/31 00:49:48;;;;;;;0.10;0.10;;;16.30;99.90;;;;;;5040250;28;20239;-80
2023/05/31 00:52:14;;;;;;;0.10;0.10;;;16.30;99.90;;;;;;5041017;28;20186;-80
2023/05/31 00:54:40;;;;;;;0.00;0.00;;;16.40;99.90;;;;;;5040225;28;20213;-80
2023/05/31 00:57:06;;;;;;;0.10;0.10;;;16.30;99.90;;;;;;5039848;28;20186;-80
2023/05/31 00:59:31;;;;;;;0.10;0.10;;;16.30;99.90;;;;;;5038522;28;20190;-80
2023/05/31 01:01:57;;;;;;;0.10;0.10;;;16.30;99.90;;;;;;5043650;28;20186;-80
2023/05/31 01:04:23;;;;;;;0.10;0.10;;;16.30;99.90;;;;;;5041861;28;20210;-80
2023/05/31 01:06:51;;;;;;;0.10;0.10;;;16.30;99.90;;;;;;5042445;28;20216;-81
2023/05/31 01:09:17;;;;;;;0.10;0.10;;;16.30;99.90;;;;;;5044035;28;20268;-80
2023/05/31 01:12:02;;;;;;;0.10;0.10;;;16.30;99.90;;;;;;5042926;28;20181;-80
2023/05/31 01:14:50;;;;;;;0.10;0.10;;;16.40;99.90;;;;;;5043986;28;20201;-80
2023/05/31 01:17:36;;;;;;;0.10;0.10;;;16.30;99.90;;;;;;5043178;28;20182;-80
2023/05/31 01:20:05;;;;;;;0.10;0.10;;;16.30;99.90;;;;;;5044156;28;20265;-80
2023/05/31 01:22:47;;;;;;;0.10;0.10;;;16.40;99.90;;;;;;5042521;28;20761;-80
2023/05/31 01:25:25;;;;;;;0.10;0.10;;;16.30;99.90;;;;;;5045039;28;20235;-80
2023/05/31 01:27:52;;;;;;;0.10;0.10;;;16.30;99.90;;;;;;5043859;28;20193;-80
2023/05/31 01:30:21;;;;;;;0.10;0.10;;;16.30;99.90;;;;;;5039924;28;20659;-80
2023/05/31 01:32:48;;;;;;;0.10;0.10;;;16.30;99.90;;;;;;5041444;28;20182;-80
2023/05/31 01:35:14;;;;;;;0.10;0.10;;;16.30;99.90;;;;;;5043002;28;20202;-80
2023/05/31 01:37:40;;;;;;;0.10;0.10;;;16.30;99.90;;;;;;5042591;28;20725;-80
2023/05/31 01:40:06;;;;;;;0.10;0.10;;;16.30;99.90;;;;;;5043873;28;20895;-80
2023/05/31 01:42:32;;;;;;;0.10;0.10;;;16.30;99.90;;;;;;5043204;28;20892;-80
2023/05/31 01:44:58;;;;;;;0.10;0.10;;;16.30;99.90;;;;;;5041684;28;20300;-79
2023/05/31 01:47:25;;;;;;;0.10;0.10;;;16.20;99.90;;;;;;5042202;28;21176;-80
2023/05/31 01:49:50;;;;;;;0.10;0.10;;;16.20;99.90;;;;;;5038914;28;20307;-80
2023/05/31 01:52:19;;;;;;;0.10;0.10;;;16.20;99.90;;;;;;5041217;28;20178;-80
2023/05/31 01:54:44;;;;;;;0.10;0.10;;;16.10;99.90;;;;;;5042612;28;20211;-80
2023/05/31 01:57:11;;;;;;;0.10;0.10;;;16.00;99.90;;;;;;5043831;28;20676;-80
2023/05/31 01:59:39;;;;;;;0.10;0.10;;;16.00;99.90;;;;;;5042331;28;20193;-80
2023/05/31 02:02:05;;;;;;;0.10;0.10;;;15.90;99.90;;;;;;5042648;28;20182;-80
2023/05/31 02:04:31;;;;;;;0.10;0.10;;;16.00;99.90;;;;;;5041826;28;20283;-80
2023/05/31 02:06:57;;;;;;;0.10;0.10;;;16.00;99.90;;;;;;5044014;28;21152;-80
2023/05/31 02:09:23;;;;;;;0.10;0.10;;;15.90;99.90;;;;;;5045212;28;20193;-80
2023/05/31 02:11:49;;;;;;;0.10;0.10;;;15.90;99.90;;;;;;5042894;28;20190;-80
2023/05/31 02:14:15;;;;;;;0.10;0.10;;;15.90;99.90;;;;;;5044257;28;20213;-80
2023/05/31 02:16:40;;;;;;;0.10;0.10;;;15.90;99.90;;;;;;5045074;28;20185;-80
2023/05/31 02:19:06;;;;;;;0.10;0.10;;;15.90;99.90;;;;;;5043367;28;20216;-81
2023/05/31 02:21:35;;;;;;;0.10;0.10;;;15.90;99.90;;;;;;5044313;28;20235;-80
2023/05/31 02:24:01;;;;;;;0.10;0.10;;;15.90;99.90;;;;;;5045176;28;20208;-80
2023/05/31 02:26:26;;;;;;;0.10;0.10;;;15.80;99.90;;;;;;5044548;28;20181;-80
2023/05/31 02:28:52;;;;;;;0.10;0.10;;;15.80;99.90;;;;;;5043912;28;20174;-80
2023/05/31 02:31:18;;;;;;;0.10;0.10;;;15.80;99.90;;;;;;5043346;28;20232;-80
2023/05/31 02:33:43;;;;;;;0.10;0.10;;;15.70;99.90;;;;;;5042122;28;20296;-80
2023/05/31 02:36:11;;;;;;;0.03;0.03;;;15.80;99.90;;;;;;5041598;28;20185;-80
2023/05/31 02:38:37;;;;;;;0.10;0.10;;;15.80;99.90;;;;;;5042580;28;20596;-80
2023/05/31 02:41:02;;;;;;;0.10;0.10;;;15.80;99.90;;;;;;5042084;28;20204;-80
2023/05/31 02:43:28;;;;;;;0.10;0.10;;;15.80;99.90;;;;;;5040450;28;20223;-80
2023/05/31 02:45:53;;;;;;;0.10;0.10;;;15.80;99.90;;;;;;5043705;28;20182;-80
2023/05/31 02:48:19;;;;;;;0.10;0.10;;;15.70;99.90;;;;;;5043954;28;20216;-80
2023/05/31 02:50:44;;;;;;;0.10;0.10;;;15.70;99.90;;;;;;5045067;28;20174;-80
2023/05/31 02:53:10;;;;;;;0.10;0.10;;;15.80;99.90;;;;;;5043121;28;20586;-80
2023/05/31 02:55:37;;;;;;;0.10;0.10;;;15.80;99.90;;;;;;5045089;28;20190;-80
2023/05/31 02:58:03;;;;;;;0.10;0.10;;;15.80;99.90;;;;;;5040817;28;20681;-80
2023/05/31 03:00:28;;;;;;;0.10;0.10;;;15.80;99.90;;;;;;5041256;28;20190;-80
2023/05/31 03:02:54;;;;;;;0.10;0.10;;;15.80;99.90;;;;;;5043298;28;20277;-80
2023/05/31 03:05:20;;;;;;;0.10;0.10;;;15.70;99.90;;;;;;5044183;28;20204;-80
2023/05/31 03:07:46;;;;;;;0.10;0.10;;;15.80;99.90;;;;;;5044262;28;20208;-80
2023/05/31 03:10:12;;;;;;;0.10;0.10;;;15.70;99.90;;;;;;5042583;28;20243;-80
2023/05/31 03:12:37;;;;;;;0.10;0.10;;;15.80;99.90;;;;;;5041689;28;20217;-80
2023/05/31 03:15:04;;;;;;;0.10;0.10;;;15.80;99.90;;;;;;5043115;28;20201;-80
2023/05/31 03:17:30;;;;;;;0.10;0.10;;;15.70;99.90;;;;;;5041639;28;20217;-80
2023/05/31 03:19:56;;;;;;;0.10;0.10;;;15.70;99.90;;;;;;5042822;28;20185;-80
2023/05/31 03:22:23;;;;;;;0.10;0.10;;;15.70;99.90;;;;;;5042265;28;20181;-81
2023/05/31 03:24:48;;;;;;;0.10;0.10;;;15.70;99.90;;;;;;5040787;28;20229;-81
2023/05/31 03:27:14;;;;;;;0.30;0.30;;;15.70;99.90;;;;;;5041940;28;20233;-80
2023/05/31 03:29:41;;;;;;;0.10;0.10;;;15.70;99.90;;;;;;5043033;28;20238;-80
2023/05/31 03:32:07;;;;;;;0.10;0.10;;;15.70;99.90;;;;;;5042788;28;20265;-79
2023/05/31 03:34:32;;;;;;;0.10;0.10;;;15.70;99.90;;;;;;5043589;28;20301;-80
2023/05/31 03:36:58;;;;;;;0.67;0.67;;;15.70;99.90;;;;;;5040134;28;20562;-79
2023/05/31 03:39:24;;;;;;;0.10;0.10;;;15.80;99.90;;;;;;5043493;28;20730;-79
2023/05/31 03:41:49;;;;;;;0.20;0.20;;;15.90;99.90;;;;;;5042006;28;20192;-79
2023/05/31 03:44:15;;;;;;;0.00;0.00;;;16.30;99.90;;;;;;5038124;28;20288;-79
2023/05/31 03:46:41;;;;;;;0.10;0.10;;;16.60;99.90;;;;;;5037778;28;20221;-79
2023/05/31 03:49:07;;;;;;;0.10;0.10;;;16.70;99.90;;;;;;5032596;28;20177;-79
2023/05/31 03:51:32;;;;;;;0.10;0.10;;;17.00;99.90;;;;;;5040071;28;20182;-79
2023/05/31 03:53:58;;;;;;;0.10;0.10;;;17.20;99.90;;;;;;5040568;28;20237;-79
2023/05/31 03:56:23;;;;;;;0.10;0.10;;;17.60;99.90;;;;;;5041919;28;20192;-79
2023/05/31 03:58:49;;;;;;;0.10;0.10;;;17.70;99.90;;;;;;5043093;28;20201;-79
2023/05/31 04:01:15;;;;;;;0.10;0.10;;;17.90;99.90;;;;;;5042955;28;20193;-80
2023/05/31 04:03:41;;;;;;;0.10;0.10;;;18.00;99.90;;;;;;5041955;28;20224;-80
2023/05/31 04:06:06;;;;;;;0.10;0.10;;;17.90;99.90;;;;;;5043332;28;20193;-80
2023/05/31 04:08:32;;;;;;;0.10;0.10;;;18.20;99.90;;;;;;5043394;28;20243;-80
2023/05/31 04:10:57;;;;;;;0.10;0.10;;;18.40;99.90;;;;;;5042054;28;20174;-79
2023/05/31 04:13:23;;;;;;;0.10;0.10;;;18.60;99.90;;;;;;5038367;28;20318;-80
2023/05/31 04:15:48;;;;;;;0.10;0.10;;;19.00;99.90;;;;;;5042663;28;20266;-80
2023/05/31 04:18:14;;;;;;;0.10;0.10;;;18.80;99.90;;;;;;5041608;28;20674;-80
2023/05/31 04:20:39;;;;;;;0.10;0.10;;;18.50;99.90;;;;;;5042282;28;20213;-79
2023/05/31 04:23:05;;;;;;;0.10;0.10;;;18.20;99.90;;;;;;5041885;28;20190;-80
2023/05/31 04:25:31;;;;;;;0.10;0.10;;;17.90;99.90;;;;;;5042039;28;20182;-80
2023/05/31 04:27:56;;;;;;;0.10;0.10;;;17.60;99.90;;;;;;5042511;28;20258;-80
2023/05/31 04:30:23;;;;;;;0.10;0.10;;;17.60;99.90;;;;;;5039288;28;20519;-80
2023/05/31 04:32:51;;;;;;;0.10;0.10;;;17.50;99.90;;;;;;5037906;28;20662;-80
2023/05/31 04:35:17;;;;;;;0.10;0.10;;;17.40;99.90;;;;;;5051293;28;20983;-80
2023/05/31 04:37:42;;;;;;;0.10;0.10;;;17.30;99.90;;;;;;5042470;28;20320;-80
2023/05/31 04:40:11;;;;;;;0.10;0.10;;;17.30;99.90;;;;;;5043319;28;20185;-80
2023/05/31 04:42:37;;;;;;;0.10;0.10;;;17.30;99.90;;;;;;5041467;28;20194;-80
2023/05/31 04:45:04;;;;;;;0.10;0.10;;;17.30;99.90;;;;;;5039932;28;20206;-80
2023/05/31 04:47:36;;;;;;;0.10;0.10;;;17.30;99.90;;;;;;5041650;28;20750;-81
2023/05/31 04:50:01;;;;;;;0.10;0.10;;;17.20;99.90;;;;;;5050215;28;20632;-81
2023/05/31 04:52:32;;;;;;;0.10;0.10;;;17.20;99.90;;;;;;5038778;28;20189;-80
2023/05/31 04:55:01;;;;;;;0.10;0.10;;;17.10;99.90;;;;;;5040077;28;20197;-80
2023/05/31 04:57:28;;;;;;;0.30;0.30;;;17.10;99.90;;;;;;5040512;28;20294;-80
2023/05/31 04:59:56;;;;;;;0.10;0.10;;;17.00;99.90;;;;;;5044292;28;20225;-80
2023/05/31 05:02:22;;;;;;;0.10;0.10;;;17.00;99.90;;;;;;5047698;28;20517;-80
2023/05/31 05:04:51;;;;;;;0.10;0.10;;;17.10;99.90;;;;;;5047117;28;20223;-80
2023/05/31 05:07:16;;;;;;;0.10;0.10;;;17.10;99.90;;;;;;5042718;28;20201;-80
2023/05/31 05:09:42;;;;;;;0.10;0.10;;;17.20;99.90;;;;;;5042464;28;20310;-81
2023/05/31 05:12:09;;;;;;;0.10;0.10;;;17.20;99.90;;;;;;5039902;28;20231;-84
2023/05/31 05:14:35;;;;;;;0.10;0.10;;;17.20;99.90;;;;;;5043342;28;20206;-84
2023/05/31 05:17:00;;;;;;;0.10;0.10;;;17.20;99.90;;;;;;5042423;28;20192;-84
2023/05/31 05:19:26;;;;;;;0.10;0.10;;;17.30;99.90;;;;;;5040795;28;20232;-84
2023/05/31 05:21:51;;;;;;;0.10;0.10;;;17.30;99.90;;;;;;5042884;28;20188;-84
2023/05/31 05:24:17;;;;;;;0.10;0.10;;;17.40;99.90;;;;;;5048101;28;20261;-84
2023/05/31 05:26:44;;;;;;;0.10;0.10;;;17.50;99.90;;;;;;5042258;28;20215;-83
2023/05/31 05:29:09;;;;;;;0.10;0.10;;;17.50;99.90;;;;;;5045470;28;20186;-83
2023/05/31 05:31:35;;;;;;;0.10;0.10;;;17.60;99.90;;;;;;5039710;28;20189;-83
2023/05/31 05:34:00;;;;;;;0.10;0.10;;;17.70;99.90;;;;;;5048175;28;20197;-82
2023/05/31 05:36:26;;;;;;;0.10;0.10;;;17.70;99.90;;;;;;5040599;28;20198;-83
2023/05/31 05:38:53;;;;;;;0.10;0.10;;;17.70;99.90;;;;;;5042754;28;20224;-83
2023/05/31 05:41:19;;;;;;;0.10;0.10;;;17.80;99.90;;;;;;5044329;28;20631;-82
2023/05/31 05:43:45;;;;;;;0.10;0.10;;;17.70;99.90;;;;;;5042865;28;20193;-82
2023/05/31 05:46:10;;;;;;;0.10;0.10;;;17.80;99.90;;;;;;5043037;28;20709;-82
2023/05/31 05:48:36;;;;;;;0.10;0.10;;;17.90;99.90;;;;;;5042273;28;20288;-83
2023/05/31 05:51:03;;;;;;;0.10;0.10;;;17.90;99.90;;;;;;5041447;28;20182;-82
2023/05/31 05:53:28;;;;;;;0.10;0.10;;;18.00;99.90;;;;;;5044777;28;20197;-83
2023/05/31 05:55:54;;;;;;;0.10;0.10;;;18.20;99.90;;;;;;5043264;28;20177;-83
2023/05/31 05:58:20;;;;;;;0.10;0.10;;;18.30;99.90;;;;;;5051959;28;20905;-83
2023/05/31 06:00:46;;;;;;;0.10;0.10;;;18.40;99.90;;;;;;5043836;28;20230;-82
2023/05/31 06:03:12;;;;;;;0.10;0.10;;;18.60;99.90;;;;;;5043796;28;20191;-83
2023/05/31 06:05:38;;;;;;;0.10;0.10;;;18.60;99.90;;;;;;5041584;28;20675;-83
2023/05/31 06:08:04;;;;;;;0.10;0.10;;;18.60;99.90;;;;;;5052991;28;20251;-83
2023/05/31 06:10:30;;;;;;;0.10;0.10;;;18.60;99.90;;;;;;5042304;28;20184;-82
2023/05/31 06:12:55;;;;;;;0.10;0.10;;;18.70;99.90;;;;;;5040487;28;20192;-82
2023/05/31 06:15:21;;;;;;;0.10;0.10;;;18.70;99.90;;;;;;5038837;28;20204;-83
2023/05/31 06:17:49;;;;;;;0.20;0.20;;;18.70;99.90;;;;;;5040684;28;20200;-87
2023/05/31 06:20:15;;;;;;;0.10;0.10;;;18.90;99.90;;;;;;5043226;28;20181;-80
2023/05/31 06:22:40;;;;;;;0.10;0.10;;;18.90;99.90;;;;;;5043699;28;21550;-81
2023/05/31 06:25:07;;;;;;;0.10;0.10;;;18.80;99.90;;;;;;5041718;28;20209;-83
2023/05/31 06:27:33;;;;;;;0.10;0.10;;;18.80;99.90;;;;;;5041449;28;20678;-84
2023/05/31 06:30:00;;;;;;;0.10;0.10;;;18.80;99.90;;;;;;5042912;28;20199;-84
2023/05/31 06:32:28;;;;;;;0.10;0.10;;;18.70;99.90;;;;;;5042045;28;20184;-83
2023/05/31 06:34:54;;;;;;;0.10;0.10;;;18.70;99.90;;;;;;5043665;28;20208;-84
2023/05/31 06:37:21;;;;;;;0.10;0.10;;;18.90;99.90;;;;;;5042637;28;20190;-83
2023/05/31 06:39:47;;;;;;;0.10;0.10;;;19.00;99.90;;;;;;5042921;28;20183;-84
2023/05/31 06:42:13;;;;;;;0.10;0.10;;;19.10;99.90;;;;;;5041690;28;20182;-83
2023/05/31 06:44:40;;;;;;;0.10;0.10;;;19.00;99.90;;;;;;5041999;28;20262;-83
2023/05/31 06:47:06;;;;;;;0.10;0.10;;;19.10;99.90;;;;;;5039947;28;20219;-83
2023/05/31 06:49:31;;;;;;;0.10;0.10;;;19.20;99.90;;;;;;5042098;28;20184;-83
2023/05/31 06:51:57;;;;;;;0.10;0.10;;;19.40;99.90;;;;;;5040932;28;20189;-83
2023/05/31 06:54:23;;;;;;;0.10;0.10;;;19.50;99.90;;;;;;5040577;28;20220;-84
2023/05/31 06:56:48;;;;;;;0.10;0.10;;;19.60;99.90;;;;;;5042521;28;20263;-83
2023/05/31 06:59:14;;;;;;;0.10;0.10;;;19.40;99.90;;;;;;5040881;28;20280;-83
2023/05/31 07:01:40;;;;;;;0.10;0.10;;;19.50;99.90;;;;;;5040455;28;20192;-83
2023/05/31 07:04:05;;;;;;;0.10;0.10;;;19.40;99.90;;;;;;5042165;28;20615;-83
2023/05/31 07:06:31;;;;;;;0.10;0.10;;;19.60;99.90;;;;;;5038150;28;20658;-84
2023/05/31 07:08:57;;;;;;;0.10;0.10;;;19.50;99.90;;;;;;5036918;28;20276;-83
2023/05/31 07:11:23;;;;;;;0.10;0.10;;;19.50;99.90;;;;;;5034421;28;21087;-82
2023/05/31 07:13:49;;;;;;;0.10;0.10;;;19.60;99.90;;;;;;5039551;28;20213;-81
2023/05/31 07:16:14;;;;;;;0.10;0.10;;;19.70;99.90;;;;;;5038498;28;20187;-80
2023/05/31 07:18:40;;;;;;;0.10;0.10;;;20.10;99.90;;;;;;5042868;28;20198;-81
2023/05/31 07:21:06;;;;;;;0.10;0.10;;;20.20;99.90;;;;;;5039563;28;20197;-80
2023/05/31 07:23:32;;;;;;;0.10;0.10;;;20.30;99.90;;;;;;5038631;28;20264;-81
2023/05/31 07:25:59;;;;;;;0.10;0.10;;;20.20;99.90;;;;;;5027621;28;20209;-81
2023/05/31 07:28:25;;;;;;;0.10;0.10;;;20.30;99.90;;;;;;5035108;28;20244;-81
2023/05/31 07:30:50;;;;;;;0.10;0.10;;;20.60;99.90;;;;;;5039497;28;20381;-81
2023/05/31 07:33:16;;;;;;;0.10;0.10;;;20.40;99.90;;;;;;5037203;28;20231;-81
2023/05/31 07:35:43;;;;;;;0.10;0.10;;;20.70;99.90;;;;;;5042544;28;20212;-81
2023/05/31 07:38:08;;;;;;;0.10;0.10;;;20.40;99.90;;;;;;5040884;28;20217;-81
2023/05/31 07:40:34;;;;;;;0.10;0.10;;;20.30;99.90;;;;;;5042362;28;20281;-81
2023/05/31 07:42:59;;;;;;;0.10;0.10;;;20.40;99.90;;;;;;5039357;28;20214;-81
2023/05/31 07:45:25;;;;;;;0.10;0.10;;;20.40;99.90;;;;;;5042430;28;20197;-81
2023/05/31 07:47:52;;;;;;;0.10;0.10;;;20.20;99.90;;;;;;5037206;28;20210;-83
2023/05/31 07:50:18;;;;;;;0.10;0.10;;;20.30;99.90;;;;;;5038965;28;20236;-82
2023/05/31 07:52:46;;;;;;;0.10;0.10;;;20.50;99.90;;;;;;5040914;28;20205;-81
2023/05/31 07:55:12;;;;;;;0.10;0.10;;;20.70;99.90;;;;;;5040183;28;20280;-81
2023/05/31 07:57:38;;;;;;;0.10;0.10;;;20.50;99.90;;;;;;5042939;28;20178;-81
2023/05/31 08:00:05;;;;;;;0.10;0.10;;;20.80;99.90;;;;;;5040653;28;21253;-81
2023/05/31 08:02:30;;;;;;;0.10;0.10;;;21.10;99.90;;;;;;5037074;28;20225;-82
2023/05/31 08:05:01;;;;;;;0.10;0.10;;;20.80;99.90;;;;;;5036859;28;20221;-82
2023/05/31 08:07:27;;;;;;;0.10;0.10;;;20.60;99.90;;;;;;5039180;28;20221;-84
2023/05/31 08:09:52;;;;;;;0.10;0.10;;;20.50;99.90;;;;;;5037730;28;20284;-84
2023/05/31 08:12:18;;;;;;;0.10;0.10;;;20.90;99.90;;;;;;5038022;28;20182;-81
2023/05/31 08:14:43;;;;;;;0.10;0.10;;;20.70;99.90;;;;;;5039707;28;20206;-81
2023/05/31 08:17:09;;;;;;;0.10;0.10;;;20.80;99.90;;;;;;5040237;28;20200;-81
2023/05/31 08:19:34;;;;;;;0.10;0.10;;;20.70;99.90;;;;;;5043229;28;20195;-81
2023/05/31 08:22:00;;;;;;;0.10;0.10;;;20.70;99.90;;;;;;5040335;28;20306;-81
2023/05/31 08:24:26;;;;;;;0.10;0.10;;;20.90;99.90;;;;;;5041360;28;20206;-81
2023/05/31 08:26:51;;;;;;;0.10;0.10;;;21.10;99.90;;;;;;5046755;28;20202;-81
2023/05/31 08:29:17;;;;;;;0.10;0.10;;;21.20;99.90;;;;;;5046500;28;20837;-81
2023/05/31 08:31:42;;;;;;;0.10;0.10;;;21.20;99.90;;;;;;5045251;28;20193;-81
2023/05/31 08:34:08;;;;;;;0.10;0.10;;;21.30;99.90;;;;;;5046283;28;20201;-81
2023/05/31 08:36:34;;;;;;;0.10;0.10;;;21.60;99.90;;;;;;5045454;28;20213;-81
2023/05/31 08:38:59;;;;;;;0.20;0.20;;;21.40;99.90;;;;;;5045321;28;20760;-81
2023/05/31 08:41:29;;;;;;;0.10;0.10;;;21.40;99.90;;;;;;5043368;28;20263;-81
2023/05/31 08:43:55;;;;;;;0.10;0.10;;;21.40;99.90;;;;;;5045899;28;20189;-81
2023/05/31 08:46:21;;;;;;;0.10;0.10;;;21.40;99.90;;;;;;5044505;28;20188;-81
2023/05/31 08:48:54;;;;;;;0.10;0.10;;;21.40;99.90;;;;;;5045424;28;20296;-81
2023/05/31 08:51:22;;;;;;;0.10;0.10;;;21.40;99.90;;;;;;5042315;28;20182;-81
2023/05/31 08:53:48;;;;;;;0.10;0.10;;;21.60;99.90;;;;;;5043115;28;20683;-81
2023/05/31 08:56:15;;;;;;;0.10;0.10;;;22.10;99.90;;;;;;5041885;28;20177;-81
2023/05/31 08:58:44;;;;;;;0.10;0.10;;;21.90;99.90;;;;;;5035409;28;20239;-84
2023/05/31 09:01:10;;;;;;;0.10;0.10;;;22.10;99.90;;;;;;5036914;28;20217;-84
2023/05/31 09:03:38;;;;;;;0.10;0.10;;;21.90;99.90;;;;;;5039878;28;20641;-84
2023/05/31 09:06:03;;;;;;;0.10;0.10;;;21.60;99.90;;;;;;5042187;28;20208;-85
2023/05/31 09:08:33;;;;;;;0.10;0.10;;;22.20;99.90;;;;;;5036353;28;20218;-84
2023/05/31 09:11:00;;;;;;;0.10;0.10;;;22.60;99.90;;;;;;5039607;28;20189;-85
2023/05/31 09:13:26;;;;;;;0.10;0.10;;;22.60;99.90;;;;;;5037889;28;20213;-85
2023/05/31 09:15:52;;;;;;;0.10;0.10;;;22.20;99.90;;;;;;5036628;28;20244;-84
2023/05/31 09:18:23;;;;;;;0.10;0.10;;;22.00;99.90;;;;;;5039643;28;20276;-85
2023/05/31 09:20:52;;;;;;;0.10;0.10;;;22.20;99.90;;;;;;5040552;28;20231;-85
2023/05/31 09:23:18;;;;;;;0.10;0.10;;;22.60;99.90;;;;;;5044432;28;20662;-85
2023/05/31 09:25:49;;;;;;;0.10;0.10;;;22.70;99.90;;;;;;5041313;28;20177;-85
2023/05/31 09:28:16;;;;;;;0.10;0.10;;;22.30;99.90;;;;;;5039100;28;20557;-84
2023/05/31 09:30:42;;;;;;;0.10;0.10;;;22.20;99.90;;;;;;5038275;28;21594;-85
2023/05/31 09:33:07;;;;;;;0.10;0.10;;;22.60;99.90;;;;;;5043120;28;20193;-84
2023/05/31 09:35:33;;;;;;;0.10;0.10;;;22.70;99.90;;;;;;5041934;28;20838;-85
2023/05/31 09:38:06;;;;;;;0.10;0.10;;;22.30;99.90;;;;;;5045324;28;20225;-85
2023/05/31 09:40:33;;;;;;;0.10;0.10;;;22.00;99.90;;;;;;5044104;28;20588;-84
2023/05/31 09:42:59;;;;;;;0.10;0.10;;;22.30;99.90;;;;;;5043884;28;20316;-84
2023/05/31 09:45:25;;;;;;;0.10;0.10;;;22.40;99.90;;;;;;5040427;28;20716;-85
2023/05/31 09:47:51;;;;;;;0.20;0.20;;;22.30;99.90;;;;;;5041075;28;20213;-84
2023/05/31 09:50:23;;;;;;;2.10;2.00;;;22.50;99.90;;;;;;5043656;28;20192;-85
2023/05/31 09:52:57;;;;;;;0.10;0.10;;;22.40;99.90;;;;;;5043662;28;20248;-84
2023/05/31 09:55:23;;;;;;;0.10;0.10;;;22.50;99.90;;;;;;5041234;28;20222;-84
2023/05/31 09:57:51;;;;;;;0.10;0.10;;;22.60;99.90;;;;;;5044589;28;20220;-84
2023/05/31 10:00:20;;;;;;;0.10;0.10;;;22.80;99.90;;;;;;5042317;28;20201;-84
2023/05/31 10:02:51;;;;;;;0.10;0.10;;;22.50;99.90;;;;;;5043294;28;20204;-84
2023/05/31 10:05:18;;;;;;;0.10;0.10;;;22.50;99.90;;;;;;5043480;28;20218;-84
2023/05/31 10:07:46;;;;;;;0.10;0.10;;;22.50;99.90;;;;;;5041589;28;20202;-83
2023/05/31 10:10:13;;;;;;;0.10;0.10;;;22.50;99.90;;;;;;5043349;28;20228;-85
2023/05/31 10:12:42;;;;;;;0.10;0.10;;;22.60;99.90;;;;;;5039713;28;20186;-84
2023/05/31 10:15:12;;;;;;;0.10;0.10;;;22.80;99.90;;;;;;5042036;28;20212;-84
2023/05/31 10:17:42;;;;;;;0.10;0.10;;;22.70;99.90;;;;;;5041772;28;20542;-84
2023/05/31 10:20:11;;;;;;;0.10;0.10;;;22.90;99.90;;;;;;5041800;28;20197;-85
2023/05/31 10:22:40;;;;;;;0.10;0.10;;;23.00;99.90;;;;;;5043180;28;20354;-84
2023/05/31 10:25:16;;;;;;;0.10;0.10;;;22.80;99.90;;;;;;5041644;28;20721;-84
2023/05/31 10:27:45;;;;;;;0.10;0.10;;;23.00;99.90;;;;;;5050047;28;20209;-84
2023/05/31 10:30:13;;;;;;;0.10;0.10;;;23.10;99.90;;;;;;5041109;28;20238;-84
2023/05/31 10:32:46;;;;;;;0.10;0.10;;;23.50;99.90;;;;;;5040730;28;20185;-84
2023/05/31 10:35:11;;;;;;;0.10;0.10;;;22.90;99.90;;;;;;5042172;28;20362;-85
2023/05/31 10:37:42;;;;;;;0.10;0.10;;;23.10;99.90;;;;;;5042112;28;20741;-84
2023/05/31 10:40:13;;;;;;;0.10;0.10;;;23.10;99.90;;;;;;5040716;28;20636;-84
2023/05/31 10:43:00;;;;;;;0.10;0.10;;;23.20;99.90;;;;;;5042574;28;20277;-85
2023/05/31 10:45:40;;;;;;;0.10;0.10;;;23.20;99.90;;;;;;5036099;28;20268;-82
2023/05/31 10:48:39;;;;;;;0.20;0.20;;;23.60;99.90;;;;;;5042129;28;20598;-84
2023/05/31 10:51:04;;;;;;;0.10;0.10;;;23.90;99.90;;;;;;5040826;28;20659;-84
2023/05/31 10:53:31;;;;;;;0.10;0.10;;;23.80;99.90;;;;;;5040966;28;20228;-85
2023/05/31 10:56:05;;;;;;;0.10;0.10;;;23.40;99.90;;;;;;5040268;28;20182;-85
2023/05/31 10:58:36;;;;;;;0.10;0.10;;;23.40;99.90;;;;;;5040726;28;20696;-85
2023/05/31 11:01:06;;;;;;;0.10;0.10;;;23.70;99.90;;;;;;5038468;28;20182;-85
2023/05/31 11:03:46;;;;;;;0.10;0.10;;;23.80;99.90;;;;;;5041808;28;20220;-84
2023/05/31 11:06:14;;;;;;;0.10;0.10;;;23.80;99.90;;;;;;5034724;28;20201;-84
2023/05/31 11:08:59;;;;;;;0.10;0.10;;;23.90;99.90;;;;;;5042306;28;20218;-85
2023/05/31 11:11:25;;;;;;;0.10;0.10;;;23.80;99.90;;;;;;5041205;28;20177;-85
2023/05/31 11:14:03;;;;;;;0.10;0.10;;;23.70;99.90;;;;;;5039620;28;20205;-84
2023/05/31 11:16:32;;;;;;;0.20;0.20;;;23.80;99.90;;;;;;5040405;28;20169;-85
2023/05/31 11:19:13;;;;;;;0.10;0.10;;;24.00;99.90;;;;;;5042250;28;20181;-85
2023/05/31 11:21:53;;;;;;;0.10;0.10;;;24.10;99.90;;;;;;5038238;28;20185;-84
2023/05/31 11:24:28;;;;;;;0.10;0.10;;;24.10;99.90;;;;;;5037998;28;20706;-85
2023/05/31 11:26:56;;;;;;;0.10;0.10;;;24.30;99.90;;;;;;5040590;28;20251;-84
2023/05/31 11:29:22;;;;;;;0.10;0.10;;;24.30;99.90;;;;;;5041875;28;20622;-84
2023/05/31 11:31:58;;;;;;;0.10;0.10;;;24.50;99.90;;;;;;5039660;28;20235;-85
2023/05/31 11:34:28;;;;;;;0.10;0.10;;;24.60;99.90;;;;;;5040570;28;20197;-85
2023/05/31 11:36:57;;;;;;;0.10;0.10;;;24.70;99.90;;;;;;5040780;28;20193;-85
2023/05/31 11:39:23;;;;;;;0.10;0.10;;;24.60;99.90;;;;;;5041687;28;20309;-84
2023/05/31 11:41:48;;;;;;;0.10;0.10;;;24.40;99.90;;;;;;5035488;28;20268;-82
2023/05/31 11:44:20;;;;;;;0.10;0.10;;;24.30;99.90;;;;;;5039681;28;20197;-81
2023/05/31 11:46:49;;;;;;;0.10;0.10;;;24.20;99.90;;;;;;5041702;28;20177;-80
2023/05/31 11:49:14;;;;;;;0.10;0.10;;;24.30;99.90;;;;;;5037942;28;20192;-82
2023/05/31 11:51:44;;;;;;;0.10;0.10;;;24.50;99.90;;;;;;5038013;28;20270;-81
2023/05/31 11:54:11;;;;;;;0.10;0.10;;;24.60;99.90;;;;;;5043485;28;20205;-81
2023/05/31 11:56:37;;;;;;;0.10;0.10;;;24.60;99.90;;;;;;5045325;28;20178;-81
2023/05/31 11:59:03;;;;;;;0.10;0.10;;;25.10;99.90;;;;;;5042039;28;20182;-81
2023/05/31 12:01:35;;;;;;;0.10;0.10;;;24.80;99.90;;;;;;5041954;28;20193;-80
2023/05/31 12:04:01;;;;;;;0.10;0.10;;;24.90;99.90;;;;;;5042014;28;20206;-81
2023/05/31 12:06:28;;;;;;;0.20;0.20;;;25.00;99.90;;;;;;5043836;28;20228;-81
2023/05/31 12:08:54;;;;;;;0.10;0.10;;;24.70;99.90;;;;;;5042712;28;20201;-81
2023/05/31 12:11:20;;;;;;;0.10;0.10;;;25.00;99.90;;;;;;5042692;28;20185;-81
2023/05/31 12:13:45;;;;;;;0.10;0.10;;;25.00;99.90;;;;;;5044240;28;20201;-81
2023/05/31 12:16:11;;;;;;;0.10;0.10;;;24.90;99.90;;;;;;5043076;28;20173;-81
2023/05/31 12:18:36;;;;;;;0.10;0.10;;;25.20;99.90;;;;;;5038681;28;20991;-81
2023/05/31 12:21:11;;;;;;;0.10;0.10;;;25.30;99.90;;;;;;5041288;28;20196;-81
2023/05/31 12:23:57;;;;;;;0.10;0.10;;;25.00;99.90;;;;;;5042496;28;20304;-81
2023/05/31 12:26:24;;;;;;;0.10;0.10;;;24.60;99.90;;;;;;5040943;28;20190;-81
2023/05/31 12:28:50;;;;;;;0.10;0.10;;;25.00;99.90;;;;;;5042377;28;20214;-81
2023/05/31 12:31:24;;;;;;;0.10;0.10;;;25.00;99.90;;;;;;5041381;28;20247;-81
2023/05/31 12:34:09;;;;;;;0.10;0.10;;;24.90;99.90;;;;;;5041825;28;20205;-81
2023/05/31 12:36:40;;;;;;;0.10;0.10;;;25.00;99.90;;;;;;5044466;28;20269;-81
2023/05/31 12:39:20;;;;;;;0.10;0.10;;;25.00;99.90;;;;;;5040670;28;20188;-81
2023/05/31 12:41:47;;;;;;;0.10;0.10;;;25.00;99.90;;;;;;5042240;28;20642;-81
2023/05/31 12:44:19;;;;;;;0.10;0.10;;;25.00;99.90;;;;;;5039340;28;20658;-81
2023/05/31 12:46:45;;;;;;;0.10;0.10;;;25.20;99.90;;;;;;5040928;28;20220;-81
2023/05/31 12:49:22;;;;;;;0.10;0.10;;;25.00;99.90;;;;;;5039545;28;20190;-81